createdAt,value
2022-10-09T00:00:13.611Z,10.22
2022-10-09T00:01:13.621Z,10.56
2022-10-09T00:02:13.682Z,10.39
2022-10-09T00:03:13.613Z,10.56
2022-10-09T00:04:13.618Z,10.39
2022-10-09T00:05:13.706Z,10.22
2022-10-09T00:06:13.638Z,10.11
2022-10-09T00:07:13.627Z,10.22
2022-10-09T00:08:13.626Z,10.39
2022-10-09T00:09:13.621Z,10.56
2022-10-09T00:10:13.620Z,10.56
2022-10-09T00:11:13.619Z,10.67
2022-10-09T00:12:13.623Z,10.56
2022-10-09T00:13:13.623Z,10.67
2022-10-09T00:14:13.630Z,10.56
2022-10-09T00:15:13.632Z,10.56
2022-10-09T00:16:13.623Z,10.39
2022-10-09T00:17:13.628Z,10.39
2022-10-09T00:18:13.633Z,10.56
2022-10-09T00:19:13.634Z,10.56
2022-10-09T00:20:13.627Z,10.39
2022-10-09T00:21:13.631Z,10.56
2022-10-09T00:22:13.646Z,10.22
2022-10-09T00:23:13.628Z,10.22
2022-10-09T00:24:13.630Z,10.22
2022-10-09T00:25:13.628Z,10.22
2022-10-09T00:26:13.627Z,10.39
2022-10-09T00:27:13.626Z,10.11
2022-10-09T00:28:13.667Z,10.39
2022-10-09T00:29:13.629Z,9.94
2022-10-09T00:30:13.635Z,10.22
2022-10-09T00:31:13.721Z,9.94
2022-10-09T00:32:13.629Z,10.22
2022-10-09T00:33:13.624Z,10.22
2022-10-09T00:34:13.631Z,9.78
2022-10-09T00:35:13.629Z,10.22
2022-10-09T00:36:13.635Z,10.22
2022-10-09T00:37:13.627Z,10.22
2022-10-09T00:38:13.720Z,10.11
2022-10-09T00:39:13.623Z,10.39
2022-10-09T00:40:13.642Z,10.11
2022-10-09T00:41:13.642Z,10.11
2022-10-09T00:42:13.628Z,10.11
2022-10-09T00:43:13.636Z,9.78
2022-10-09T00:44:13.630Z,10.11
2022-10-09T00:45:13.631Z,10.39
2022-10-09T00:46:13.649Z,10.22
2022-10-09T00:47:13.632Z,10.11
2022-10-09T00:48:13.636Z,9.94
2022-10-09T00:49:13.644Z,10.11
2022-10-09T00:50:13.641Z,9.94
2022-10-09T00:51:13.634Z,10.22
2022-10-09T00:52:13.643Z,10.56
2022-10-09T00:53:13.633Z,10.22
2022-10-09T00:54:13.657Z,10.22
2022-10-09T00:55:13.641Z,10.22
2022-10-09T00:56:13.647Z,10.11
2022-10-09T00:57:13.641Z,10.39
2022-10-09T00:58:13.639Z,10.11
2022-10-09T00:59:13.651Z,10.11
2022-10-09T01:00:13.661Z,9.94
2022-10-09T01:01:13.657Z,10.39
2022-10-09T01:02:13.712Z,10.22
2022-10-09T01:03:13.649Z,10.22
2022-10-09T01:04:13.653Z,10.56
2022-10-09T01:05:13.651Z,10.39
2022-10-09T01:06:13.659Z,10.56
2022-10-09T01:07:13.650Z,10.56
2022-10-09T01:08:13.664Z,10.56
2022-10-09T01:09:13.645Z,10.67
2022-10-09T01:10:13.677Z,10.67
2022-10-09T01:11:13.648Z,10.67
2022-10-09T01:12:13.664Z,10.56
2022-10-09T01:13:13.644Z,10.56
2022-10-09T01:14:13.653Z,10.39
2022-10-09T01:15:13.662Z,10.56
2022-10-09T01:16:13.695Z,10.56
2022-10-09T01:17:13.653Z,10.56
2022-10-09T01:18:13.654Z,10.56
2022-10-09T01:19:13.654Z,10.39
2022-10-09T01:20:13.662Z,10.56
2022-10-09T01:21:13.666Z,10.56
2022-10-09T01:22:13.659Z,10.56
2022-10-09T01:23:13.658Z,10.56
2022-10-09T01:24:13.663Z,10.39
2022-10-09T01:25:13.660Z,10.56
2022-10-09T01:26:13.685Z,10.39
2022-10-09T01:27:13.654Z,10.22
2022-10-09T01:28:13.680Z,10.39
2022-10-09T01:29:13.662Z,10.39
2022-10-09T01:30:13.669Z,10.39
2022-10-09T01:31:13.732Z,10.11
2022-10-09T01:32:13.657Z,10.39
2022-10-09T01:33:13.660Z,10.22
2022-10-09T01:34:13.660Z,10.22
2022-10-09T01:35:13.667Z,10.39
2022-10-09T01:36:13.665Z,10.22
2022-10-09T01:37:13.662Z,10.39
2022-10-09T01:38:13.655Z,10.22
2022-10-09T01:39:13.661Z,10.22
2022-10-09T01:40:13.665Z,10.39
2022-10-09T01:41:13.672Z,10.56
2022-10-09T01:42:13.699Z,10.56
2022-10-09T01:43:13.673Z,10.56
2022-10-09T01:44:13.679Z,10.22
2022-10-09T01:45:13.674Z,10.39
2022-10-09T01:46:13.771Z,10.22
2022-10-09T01:47:13.680Z,10.39
2022-10-09T01:48:13.686Z,10.39
2022-10-09T01:49:13.676Z,10.22
2022-10-09T01:50:13.684Z,10.39
2022-10-09T01:51:13.682Z,10.39
2022-10-09T01:52:13.692Z,10.39
2022-10-09T01:53:13.681Z,10.39
2022-10-09T01:54:13.680Z,10.11
2022-10-09T01:55:13.685Z,10.22
2022-10-09T01:56:13.689Z,10.39
2022-10-09T01:57:13.684Z,10.39
2022-10-09T01:58:13.866Z,10.11
2022-10-09T01:59:15.950Z,10.56
2022-10-09T02:00:13.686Z,10.56
2022-10-09T02:01:13.750Z,10.56
2022-10-09T02:02:13.862Z,10.56
2022-10-09T02:03:13.689Z,10.39
2022-10-09T02:04:13.685Z,10.39
2022-10-09T02:05:13.691Z,10.56
2022-10-09T02:06:13.697Z,10.56
2022-10-09T02:07:13.698Z,10.39
2022-10-09T02:08:13.705Z,10.22
2022-10-09T02:09:13.709Z,10.22
2022-10-09T02:10:13.706Z,10.22
2022-10-09T02:11:13.697Z,10.22
2022-10-09T02:12:13.696Z,10.22
2022-10-09T02:13:13.704Z,9.94
2022-10-09T02:14:13.729Z,10.11
2022-10-09T02:15:13.707Z,10.11
2022-10-09T02:16:13.753Z,9.94
2022-10-09T02:17:13.707Z,9.78
2022-10-09T02:18:13.700Z,9.94
2022-10-09T02:19:13.707Z,10.22
2022-10-09T02:20:13.720Z,10.39
2022-10-09T02:21:13.717Z,10.39
2022-10-09T02:22:13.716Z,10.11
2022-10-09T02:23:13.719Z,10.22
2022-10-09T02:24:13.718Z,10.11
2022-10-09T02:25:13.709Z,10.11
2022-10-09T02:26:13.712Z,10.11
2022-10-09T02:27:13.710Z,10.11
2022-10-09T02:28:13.768Z,10.11
2022-10-09T02:29:13.720Z,9.94
2022-10-09T02:30:13.745Z,10.11
2022-10-09T02:31:13.790Z,10.11
2022-10-09T02:32:13.733Z,10.11
2022-10-09T02:33:13.733Z,10.11
2022-10-09T02:34:13.722Z,9.94
2022-10-09T02:35:13.733Z,9.94
2022-10-09T02:36:13.731Z,10.11
2022-10-09T02:37:13.733Z,10.11
2022-10-09T02:38:13.743Z,9.94
2022-10-09T02:39:13.750Z,10.11
2022-10-09T02:40:13.737Z,9.78
2022-10-09T02:41:13.740Z,10.11
2022-10-09T02:42:13.742Z,9.78
2022-10-09T02:43:13.741Z,9.78
2022-10-09T02:44:13.745Z,10.11
2022-10-09T02:45:13.747Z,9.94
2022-10-09T02:46:13.789Z,9.78
2022-10-09T02:47:13.745Z,10.22
2022-10-09T02:48:13.748Z,10.11
2022-10-09T02:49:13.747Z,10.11
2022-10-09T02:50:13.751Z,10.11
2022-10-09T02:51:13.751Z,10.11
2022-10-09T02:52:13.750Z,10.11
2022-10-09T02:53:13.759Z,10.11
2022-10-09T02:54:13.741Z,9.94
2022-10-09T02:55:13.765Z,9.94
2022-10-09T02:56:13.749Z,9.78
2022-10-09T02:57:13.757Z,9.94
2022-10-09T02:58:13.760Z,10.11
2022-10-09T02:59:13.749Z,9.94
2022-10-09T03:00:13.760Z,9.94
2022-10-09T03:01:13.758Z,9.94
2022-10-09T03:02:13.937Z,9.94
2022-10-09T03:03:13.758Z,9.94
2022-10-09T03:04:13.762Z,9.67
2022-10-09T03:05:13.763Z,9.94
2022-10-09T03:06:13.779Z,9.78
2022-10-09T03:07:13.778Z,9.5
2022-10-09T03:08:13.778Z,9.78
2022-10-09T03:09:13.779Z,9.67
2022-10-09T03:10:13.790Z,9.94
2022-10-09T03:11:13.791Z,9.78
2022-10-09T03:12:13.774Z,9.67
2022-10-09T03:13:13.772Z,9.67
2022-10-09T03:14:13.778Z,9.39
2022-10-09T03:15:13.771Z,9.39
2022-10-09T03:16:13.825Z,9.5
2022-10-09T03:17:13.789Z,9.5
2022-10-09T03:18:13.798Z,9.67
2022-10-09T03:19:13.771Z,9.67
2022-10-09T03:20:13.774Z,9.67
2022-10-09T03:21:13.776Z,9.5
2022-10-09T03:22:13.775Z,9.67
2022-10-09T03:23:13.778Z,9.5
2022-10-09T03:24:13.778Z,9.5
2022-10-09T03:25:13.776Z,9.67
2022-10-09T03:26:13.791Z,9.5
2022-10-09T03:27:13.785Z,9.67
2022-10-09T03:28:13.826Z,9.67
2022-10-09T03:29:13.793Z,9.67
2022-10-09T03:30:13.792Z,9.67
2022-10-09T03:31:27.585Z,9.67
2022-10-09T03:32:13.798Z,9.67
2022-10-09T03:33:13.789Z,9.67
2022-10-09T03:34:13.809Z,9.94
2022-10-09T03:35:13.792Z,9.94
2022-10-09T03:36:13.803Z,9.67
2022-10-09T03:37:13.793Z,10.11
2022-10-09T03:38:13.792Z,9.5
2022-10-09T03:39:13.798Z,9.5
2022-10-09T03:40:13.800Z,9.67
2022-10-09T03:41:13.796Z,9.94
2022-10-09T03:42:13.801Z,9.67
2022-10-09T03:43:13.793Z,9.67
2022-10-09T03:44:13.799Z,9.5
2022-10-09T03:45:13.809Z,9.67
2022-10-09T03:46:13.836Z,9.67
2022-10-09T03:47:13.805Z,9.67
2022-10-09T03:48:13.810Z,9.67
2022-10-09T03:49:13.806Z,9.67
2022-10-09T03:50:13.833Z,9.67
2022-10-09T03:51:13.816Z,9.5
2022-10-09T03:52:13.821Z,9.39
2022-10-09T03:53:13.818Z,9.5
2022-10-09T03:54:13.825Z,9.06
2022-10-09T03:55:13.817Z,9.39
2022-10-09T03:56:13.814Z,9.5
2022-10-09T03:57:13.812Z,9.5
2022-10-09T03:58:13.809Z,9.67
2022-10-09T03:59:13.820Z,9.67
2022-10-09T04:00:13.818Z,9.67
2022-10-09T04:01:13.893Z,9.5
2022-10-09T04:02:13.848Z,9.5
2022-10-09T04:03:13.820Z,9.5
2022-10-09T04:04:13.817Z,9.5
2022-10-09T04:05:13.823Z,9.67
2022-10-09T04:06:13.858Z,9.39
2022-10-09T04:07:13.822Z,9.67
2022-10-09T04:08:13.829Z,9.67
2022-10-09T04:09:13.837Z,9.67
2022-10-09T04:10:13.833Z,9.67
2022-10-09T04:11:13.843Z,9.5
2022-10-09T04:12:13.830Z,9.78
2022-10-09T04:13:13.832Z,9.78
2022-10-09T04:14:13.834Z,9.78
2022-10-09T04:15:13.830Z,9.78
2022-10-09T04:16:13.846Z,9.78
2022-10-09T04:17:13.826Z,9.67
2022-10-09T04:18:13.837Z,9.67
2022-10-09T04:19:13.844Z,9.5
2022-10-09T04:20:13.831Z,9.67
2022-10-09T04:21:13.846Z,9.78
2022-10-09T04:22:13.855Z,9.22
2022-10-09T04:23:13.837Z,9.67
2022-10-09T04:24:13.833Z,9.67
2022-10-09T04:25:13.841Z,9.67
2022-10-09T04:26:13.846Z,9.5
2022-10-09T04:27:13.842Z,9.39
2022-10-09T04:28:13.893Z,9.67
2022-10-09T04:29:13.834Z,9.67
2022-10-09T04:30:13.841Z,9.67
2022-10-09T04:31:13.848Z,9.67
2022-10-09T04:32:13.846Z,9.39
2022-10-09T04:33:13.854Z,9.5
2022-10-09T04:34:13.848Z,9.67
2022-10-09T04:35:13.849Z,9.5
2022-10-09T04:36:13.848Z,9.67
2022-10-09T04:37:13.840Z,9.67
2022-10-09T04:38:13.881Z,9.5
2022-10-09T04:39:13.847Z,9.67
2022-10-09T04:40:13.859Z,9.67
2022-10-09T04:41:13.854Z,9.67
2022-10-09T04:42:13.849Z,9.5
2022-10-09T04:43:13.856Z,9.67
2022-10-09T04:44:13.855Z,9.67
2022-10-09T04:45:13.856Z,9.67
2022-10-09T04:46:13.942Z,9.67
2022-10-09T04:47:13.849Z,9.06
2022-10-09T04:48:13.857Z,9.5
2022-10-09T04:49:13.852Z,9.39
2022-10-09T04:50:13.857Z,9.5
2022-10-09T04:51:13.856Z,9.67
2022-10-09T04:52:13.867Z,9.5
2022-10-09T04:53:13.854Z,9.67
2022-10-09T04:54:13.877Z,9.67
2022-10-09T04:55:13.869Z,9.5
2022-10-09T04:56:13.854Z,9.67
2022-10-09T04:57:13.863Z,9.5
2022-10-09T04:58:13.868Z,9.5
2022-10-09T04:59:13.862Z,9.67
2022-10-09T05:00:13.865Z,9.67
2022-10-09T05:01:13.888Z,9.67
2022-10-09T05:02:13.875Z,9.5
2022-10-09T05:03:13.855Z,9.5
2022-10-09T05:04:13.869Z,9.39
2022-10-09T05:05:13.872Z,9.39
2022-10-09T05:06:13.863Z,9.5
2022-10-09T05:07:13.862Z,9.5
2022-10-09T05:08:13.870Z,9.5
2022-10-09T05:09:13.867Z,9.5
2022-10-09T05:10:13.887Z,9.67
2022-10-09T05:11:13.866Z,9.39
2022-10-09T05:12:13.862Z,9.67
2022-10-09T05:13:13.865Z,9.67
2022-10-09T05:14:13.871Z,9.39
2022-10-09T05:15:13.867Z,9.39
2022-10-09T05:16:13.951Z,9.06
2022-10-09T05:17:14.880Z,9.5
2022-10-09T05:18:13.860Z,8.94
2022-10-09T05:19:13.864Z,9.5
2022-10-09T05:20:13.870Z,9.5
2022-10-09T05:21:13.879Z,9.5
2022-10-09T05:22:13.877Z,9.5
2022-10-09T05:23:13.863Z,9.39
2022-10-09T05:24:13.870Z,9.67
2022-10-09T05:25:13.866Z,9.67
2022-10-09T05:26:13.956Z,9.39
2022-10-09T05:27:13.866Z,9.5
2022-10-09T05:28:13.912Z,9.5
2022-10-09T05:29:13.877Z,9.67
2022-10-09T05:30:13.875Z,9.67
2022-10-09T05:31:13.908Z,9.67
2022-10-09T05:32:13.882Z,9.67
2022-10-09T05:33:13.867Z,9.67
2022-10-09T05:34:13.877Z,9.67
2022-10-09T05:35:13.874Z,9.78
2022-10-09T05:36:13.884Z,9.67
2022-10-09T05:37:13.875Z,9.67
2022-10-09T05:38:13.883Z,9.67
2022-10-09T05:39:13.878Z,9.67
2022-10-09T05:40:13.881Z,9.67
2022-10-09T05:41:13.884Z,9.67
2022-10-09T05:42:13.898Z,9.78
2022-10-09T05:43:13.881Z,9.67
2022-10-09T05:44:13.890Z,9.67
2022-10-09T05:45:13.881Z,9.78
2022-10-09T05:46:13.912Z,9.67
2022-10-09T05:47:13.884Z,9.78
2022-10-09T05:48:13.888Z,9.67
2022-10-09T05:49:13.893Z,9.67
2022-10-09T05:50:13.894Z,9.5
2022-10-09T05:51:13.899Z,9.67
2022-10-09T05:52:13.889Z,9.67
2022-10-09T05:53:13.885Z,9.67
2022-10-09T05:54:13.891Z,9.78
2022-10-09T05:55:13.895Z,9.78
2022-10-09T05:56:13.897Z,9.94
2022-10-09T05:57:13.894Z,9.67
2022-10-09T05:58:13.918Z,10.11
2022-10-09T05:59:13.899Z,9.78
2022-10-09T06:00:14.020Z,9.94
2022-10-09T06:01:13.929Z,10.11
2022-10-09T06:02:13.940Z,10.11
2022-10-09T06:03:13.897Z,9.94
2022-10-09T06:04:13.905Z,10.11
2022-10-09T06:05:13.904Z,9.5
2022-10-09T06:06:13.908Z,10.22
2022-10-09T06:07:13.900Z,10.22
2022-10-09T06:08:13.908Z,10.39
2022-10-09T06:09:13.905Z,10.39
2022-10-09T06:10:13.910Z,10.39
2022-10-09T06:11:13.905Z,10.39
2022-10-09T06:12:13.909Z,10.56
2022-10-09T06:13:13.907Z,10.56
2022-10-09T06:14:13.932Z,11
2022-10-09T06:15:13.906Z,10.67
2022-10-09T06:16:13.992Z,10.56
2022-10-09T06:17:13.909Z,10.56
2022-10-09T06:18:13.910Z,10.39
2022-10-09T06:19:13.909Z,10.56
2022-10-09T06:20:13.934Z,10.56
2022-10-09T06:21:13.928Z,10.39
2022-10-09T06:22:13.918Z,10.56
2022-10-09T06:23:13.914Z,10.56
2022-10-09T06:24:13.917Z,10.56
2022-10-09T06:25:13.910Z,10.67
2022-10-09T06:26:13.919Z,10.67
2022-10-09T06:27:13.917Z,11
2022-10-09T06:28:13.944Z,11.11
2022-10-09T06:29:13.912Z,11
2022-10-09T06:30:13.932Z,11.28
2022-10-09T06:31:13.998Z,11.11
2022-10-09T06:32:13.927Z,11
2022-10-09T06:33:13.925Z,11
2022-10-09T06:34:13.919Z,11
2022-10-09T06:35:13.925Z,10.83
2022-10-09T06:36:13.930Z,10.67
2022-10-09T06:37:13.918Z,10.83
2022-10-09T06:38:13.921Z,10.67
2022-10-09T06:39:13.915Z,11
2022-10-09T06:40:13.974Z,10.67
2022-10-09T06:41:13.930Z,11
2022-10-09T06:42:13.928Z,11
2022-10-09T06:43:13.928Z,11
2022-10-09T06:44:16.475Z,10.83
2022-10-09T06:45:13.933Z,10.67
2022-10-09T06:46:13.992Z,10.56
2022-10-09T06:47:13.930Z,10.56
2022-10-09T06:48:13.925Z,10.83
2022-10-09T06:49:13.928Z,10.83
2022-10-09T06:50:13.932Z,11
2022-10-09T06:51:13.940Z,11
2022-10-09T06:52:13.930Z,10.83
2022-10-09T06:53:13.933Z,11
2022-10-09T06:54:13.941Z,10.83
2022-10-09T06:55:13.936Z,11
2022-10-09T06:56:13.933Z,10.56
2022-10-09T06:57:13.934Z,10.67
2022-10-09T06:58:13.937Z,10.83
2022-10-09T06:59:13.939Z,11.28
2022-10-09T07:00:13.935Z,11.11
2022-10-09T07:01:13.957Z,11.11
2022-10-09T07:02:14.043Z,11.28
2022-10-09T07:03:13.982Z,10.83
2022-10-09T07:04:13.939Z,11
2022-10-09T07:05:13.939Z,10.67
2022-10-09T07:06:13.937Z,10.83
2022-10-09T07:07:13.939Z,11
2022-10-09T07:08:13.943Z,11.44
2022-10-09T07:09:13.966Z,11.44
2022-10-09T07:10:13.934Z,11.44
2022-10-09T07:11:13.942Z,11.72
2022-10-09T07:12:13.942Z,11.83
2022-10-09T07:13:13.930Z,11.72
2022-10-09T07:14:13.944Z,11.44
2022-10-09T07:15:13.951Z,11.61
2022-10-09T07:16:14.027Z,11.72
2022-10-09T07:17:13.957Z,11.72
2022-10-09T07:18:13.970Z,11.83
2022-10-09T07:19:13.948Z,11.83
2022-10-09T07:20:13.946Z,11.83
2022-10-09T07:21:13.948Z,11.83
2022-10-09T07:22:13.943Z,11.83
2022-10-09T07:23:13.937Z,12.44
2022-10-09T07:24:13.945Z,12.89
2022-10-09T07:25:13.946Z,12.44
2022-10-09T07:26:13.938Z,12.44
2022-10-09T07:27:13.945Z,12.72
2022-10-09T07:28:13.992Z,12.89
2022-10-09T07:29:13.947Z,13.17
2022-10-09T07:30:13.951Z,13.17
2022-10-09T07:31:14.013Z,13.06
2022-10-09T07:32:13.955Z,13.17
2022-10-09T07:33:13.950Z,13.78
2022-10-09T07:34:13.993Z,13.94
2022-10-09T07:35:13.951Z,14.06
2022-10-09T07:36:13.948Z,14.28
2022-10-09T07:37:13.953Z,13.78
2022-10-09T07:38:13.949Z,13.94
2022-10-09T07:39:13.952Z,13.94
2022-10-09T07:40:13.960Z,13.67
2022-10-09T07:41:13.960Z,13.67
2022-10-09T07:42:13.958Z,13.33
2022-10-09T07:43:13.947Z,13.67
2022-10-09T07:44:13.952Z,13.33
2022-10-09T07:45:13.951Z,13.5
2022-10-09T07:46:14.028Z,13.5
2022-10-09T07:47:13.954Z,13.94
2022-10-09T07:48:13.959Z,13.94
2022-10-09T07:49:13.958Z,13.67
2022-10-09T07:50:13.977Z,14.06
2022-10-09T07:51:13.959Z,14.28
2022-10-09T07:52:13.963Z,13.78
2022-10-09T07:53:13.969Z,13.5
2022-10-09T07:54:13.968Z,13.94
2022-10-09T07:55:13.956Z,14.06
2022-10-09T07:56:13.969Z,14.39
2022-10-09T07:57:13.967Z,13.94
2022-10-09T07:58:13.974Z,13.94
2022-10-09T07:59:13.986Z,14.06
2022-10-09T08:00:13.957Z,14.06
2022-10-09T08:01:17.541Z,14.39
2022-10-09T08:02:14.022Z,14.06
2022-10-09T08:03:13.962Z,13.94
2022-10-09T08:04:13.967Z,13.67
2022-10-09T08:05:13.967Z,14.06
2022-10-09T08:06:13.983Z,14.06
2022-10-09T08:07:13.967Z,14.06
2022-10-09T08:08:13.963Z,13.94
2022-10-09T08:09:13.968Z,14.06
2022-10-09T08:10:13.970Z,13.94
2022-10-09T08:11:13.970Z,13.67
2022-10-09T08:12:13.968Z,13.33
2022-10-09T08:13:13.968Z,13.67
2022-10-09T08:14:18.170Z,14.06
2022-10-09T08:15:13.978Z,13.67
2022-10-09T08:16:14.003Z,14.06
2022-10-09T08:17:13.972Z,13.67
2022-10-09T08:18:13.980Z,13.33
2022-10-09T08:19:13.970Z,12.72
2022-10-09T08:20:13.975Z,12.56
2022-10-09T08:21:13.973Z,13.67
2022-10-09T08:22:13.999Z,14.06
2022-10-09T08:23:13.987Z,14.06
2022-10-09T08:24:13.969Z,14.06
2022-10-09T08:25:13.972Z,14.56
2022-10-09T08:26:13.980Z,14.28
2022-10-09T08:27:13.980Z,14.56
2022-10-09T08:28:14.034Z,14.56
2022-10-09T08:29:14.084Z,14.89
2022-10-09T08:30:13.989Z,15
2022-10-09T08:31:14.037Z,15.56
2022-10-09T08:32:13.987Z,15.22
2022-10-09T08:33:13.980Z,16.06
2022-10-09T08:34:13.987Z,15.17
2022-10-09T08:35:13.989Z,15
2022-10-09T08:36:13.991Z,15.39
2022-10-09T08:37:13.982Z,15.39
2022-10-09T08:38:25.555Z,15
2022-10-09T08:39:13.989Z,15
2022-10-09T08:40:14.001Z,15.17
2022-10-09T08:41:13.999Z,15
2022-10-09T08:42:13.990Z,14.56
2022-10-09T08:43:13.996Z,14.56
2022-10-09T08:44:13.998Z,14.56
2022-10-09T08:45:13.997Z,14.39
2022-10-09T08:46:17.147Z,14.89
2022-10-09T08:47:13.988Z,14.39
2022-10-09T08:48:13.995Z,13.94
2022-10-09T08:49:13.992Z,14.56
2022-10-09T08:50:13.996Z,15.22
2022-10-09T08:51:14.004Z,15.72
2022-10-09T08:52:14.002Z,15.89
2022-10-09T08:53:13.991Z,16.39
2022-10-09T08:54:14.021Z,16.39
2022-10-09T08:55:14.004Z,16.22
2022-10-09T08:56:14.000Z,15.89
2022-10-09T08:57:14.010Z,16.39
2022-10-09T08:58:14.000Z,15.89
2022-10-09T08:59:14.005Z,15.72
2022-10-09T09:00:14.012Z,15.22
2022-10-09T09:01:14.056Z,15
2022-10-09T09:02:14.000Z,14.61
2022-10-09T09:03:14.052Z,14.89
2022-10-09T09:04:14.006Z,14.28
2022-10-09T09:05:14.012Z,15.11
2022-10-09T09:06:14.007Z,15.61
2022-10-09T09:07:14.003Z,15.61
2022-10-09T09:08:14.011Z,15.56
2022-10-09T09:09:14.013Z,15.89
2022-10-09T09:10:14.038Z,15.78
2022-10-09T09:11:16.104Z,16.06
2022-10-09T09:12:14.006Z,15.61
2022-10-09T09:13:14.012Z,15.17
2022-10-09T09:14:14.010Z,14.89
2022-10-09T09:15:14.011Z,14.78
2022-10-09T09:16:14.051Z,14.89
2022-10-09T09:17:14.021Z,15.06
2022-10-09T09:18:14.006Z,15.61
2022-10-09T09:19:14.017Z,15.78
2022-10-09T09:20:14.016Z,16.06
2022-10-09T09:21:14.012Z,15.61
2022-10-09T09:22:14.018Z,15.89
2022-10-09T09:23:14.001Z,15.61
2022-10-09T09:24:14.009Z,15.17
2022-10-09T09:25:14.037Z,15.61
2022-10-09T09:26:14.040Z,15.61
2022-10-09T09:27:14.015Z,16.06
2022-10-09T09:28:14.091Z,15.44
2022-10-09T09:29:14.005Z,15.28
2022-10-09T09:30:14.003Z,15.78
2022-10-09T09:31:14.027Z,15.89
2022-10-09T09:32:14.020Z,16.06
2022-10-09T09:33:14.036Z,16.56
2022-10-09T09:34:14.011Z,16.39
2022-10-09T09:35:14.022Z,16.06
2022-10-09T09:36:14.013Z,16.22
2022-10-09T09:37:14.019Z,16.39
2022-10-09T09:38:14.022Z,16.22
2022-10-09T09:41:14.025Z,16.89
2022-10-09T09:42:14.046Z,17
2022-10-09T09:43:14.040Z,16.06
2022-10-09T09:44:14.031Z,16.39
2022-10-09T09:45:14.034Z,16.56
2022-10-09T09:46:14.099Z,16.72
2022-10-09T09:47:14.030Z,17
2022-10-09T09:48:14.024Z,17.17
2022-10-09T09:49:14.036Z,17
2022-10-09T09:50:28.734Z,16.56
2022-10-09T09:51:27.820Z,16.39
2022-10-09T09:52:14.035Z,15.89
2022-10-09T09:53:14.049Z,16.72
2022-10-09T09:54:14.042Z,16.56
2022-10-09T09:55:14.044Z,16.22
2022-10-09T09:56:14.037Z,16.39
2022-10-09T09:57:17.239Z,16.56
2022-10-09T09:58:14.057Z,16.56
2022-10-09T09:59:14.037Z,16.56
2022-10-09T10:00:14.038Z,17
2022-10-09T10:01:14.086Z,16.89
2022-10-09T10:02:14.100Z,16.72
2022-10-09T10:03:14.059Z,16.56
2022-10-09T10:04:14.051Z,16.56
2022-10-09T10:05:14.041Z,16.89
2022-10-09T10:06:14.044Z,17
2022-10-09T10:07:14.044Z,17
2022-10-09T10:08:14.044Z,17.5
2022-10-09T10:09:14.044Z,17
2022-10-09T10:10:14.049Z,17.5
2022-10-09T10:11:14.048Z,17.67
2022-10-09T10:12:14.058Z,17.5
2022-10-09T10:13:14.051Z,17.83
2022-10-09T10:14:14.079Z,17.33
2022-10-09T10:15:14.053Z,17
2022-10-09T10:16:14.131Z,16.39
2022-10-09T10:17:16.444Z,16.89
2022-10-09T10:18:14.071Z,17.5
2022-10-09T10:19:14.060Z,17.94
2022-10-09T10:20:14.062Z,17
2022-10-09T10:21:14.068Z,17.33
2022-10-09T10:22:14.062Z,18.44
2022-10-09T10:23:14.066Z,17.83
2022-10-09T10:24:14.066Z,17.94
2022-10-09T10:25:15.428Z,17.5
2022-10-09T10:26:14.066Z,16.56
2022-10-09T10:27:14.063Z,16.89
2022-10-09T10:28:14.091Z,17
2022-10-09T10:29:14.061Z,16.39
2022-10-09T10:30:14.100Z,16.89
2022-10-09T10:31:14.094Z,17.33
2022-10-09T10:32:14.069Z,17.5
2022-10-09T10:33:14.063Z,18.61
2022-10-09T10:34:14.064Z,17.94
2022-10-09T10:35:14.068Z,18.17
2022-10-09T10:36:14.081Z,17.67
2022-10-09T10:37:14.060Z,18.28
2022-10-09T10:38:14.073Z,18.44
2022-10-09T10:39:14.079Z,18.94
2022-10-09T10:40:14.079Z,18.94
2022-10-09T10:41:14.075Z,18.44
2022-10-09T10:42:14.072Z,18.28
2022-10-09T10:43:14.073Z,17.67
2022-10-09T10:44:14.078Z,17.5
2022-10-09T10:45:14.074Z,17.5
2022-10-09T10:46:14.149Z,18.28
2022-10-09T10:47:14.076Z,18.94
2022-10-09T10:48:14.083Z,19.28
2022-10-09T10:49:14.085Z,18.94
2022-10-09T10:50:14.076Z,18.94
2022-10-09T10:51:14.090Z,18.78
2022-10-09T10:52:14.091Z,18.94
2022-10-09T10:53:14.084Z,18.94
2022-10-09T10:54:14.091Z,17.5
2022-10-09T10:55:14.084Z,16.06
2022-10-09T10:56:14.088Z,16.39
2022-10-09T10:57:14.092Z,16.39
2022-10-09T10:58:14.117Z,17.33
2022-10-09T10:59:14.092Z,17.83
2022-10-09T11:00:14.113Z,17.94
2022-10-09T11:01:14.158Z,17.94
2022-10-09T11:02:14.120Z,18.28
2022-10-09T11:03:14.193Z,17.94
2022-10-09T11:04:14.097Z,18.44
2022-10-09T11:05:14.115Z,17.94
2022-10-09T11:06:14.097Z,17.5
2022-10-09T11:07:14.124Z,17.22
2022-10-09T11:08:14.098Z,17.83
2022-10-09T11:09:14.112Z,18.17
2022-10-09T11:10:14.112Z,18.94
2022-10-09T11:11:14.105Z,18.94
2022-10-09T11:12:19.822Z,19.44
2022-10-09T11:13:14.110Z,19.06
2022-10-09T11:14:17.898Z,19.06
2022-10-09T11:15:14.121Z,18.61
2022-10-09T11:16:14.136Z,18.5
2022-10-09T11:17:14.116Z,18.17
2022-10-09T11:18:14.139Z,17.67
2022-10-09T11:19:14.125Z,18.17
2022-10-09T11:20:14.122Z,19.11
2022-10-09T11:21:14.117Z,18.17
2022-10-09T11:22:14.119Z,17.67
2022-10-09T11:23:14.117Z,17.67
2022-10-09T11:24:14.147Z,18.17
2022-10-09T11:25:14.108Z,18.17
2022-10-09T11:26:14.121Z,18.67
2022-10-09T11:27:14.133Z,18.5
2022-10-09T11:28:14.147Z,17.67
2022-10-09T11:29:14.125Z,16.28
2022-10-09T11:30:14.133Z,16.44
2022-10-09T11:31:14.234Z,16.72
2022-10-09T11:32:14.129Z,16.89
2022-10-09T11:33:14.136Z,17.22
2022-10-09T11:34:14.149Z,17.5
2022-10-09T11:35:14.145Z,18.17
2022-10-09T11:36:14.119Z,18.17
2022-10-09T11:37:14.131Z,18
2022-10-09T11:38:14.136Z,18
2022-10-09T11:39:14.125Z,18.17
2022-10-09T11:40:14.154Z,18.17
2022-10-09T11:41:14.121Z,18.33
2022-10-09T11:42:14.138Z,18.83
2022-10-09T11:43:14.139Z,18.67
2022-10-09T11:44:14.121Z,18.94
2022-10-09T11:45:14.130Z,19.11
2022-10-09T11:46:14.152Z,19.33
2022-10-09T11:47:14.125Z,18.17
2022-10-09T11:48:14.132Z,17.5
2022-10-09T11:49:14.128Z,17.67
2022-10-09T11:50:14.253Z,17.83
2022-10-09T11:51:14.133Z,17.83
2022-10-09T11:52:14.133Z,17.22
2022-10-09T11:53:14.131Z,16.56
2022-10-09T11:54:14.134Z,16.72
2022-10-09T11:55:14.138Z,16.44
2022-10-09T11:56:14.131Z,16.56
2022-10-09T11:57:15.397Z,16.89
2022-10-09T11:58:14.136Z,16.89
2022-10-09T11:59:14.139Z,17.39
2022-10-09T12:00:14.199Z,17.67
2022-10-09T12:01:14.222Z,17.67
2022-10-09T12:02:14.217Z,17.67
2022-10-09T12:03:14.142Z,18.17
2022-10-09T12:04:14.147Z,17.22
2022-10-09T12:05:14.142Z,17.5
2022-10-09T12:06:14.171Z,17.67
2022-10-09T12:07:14.140Z,16.72
2022-10-09T12:08:15.497Z,16.56
2022-10-09T12:09:14.138Z,16.72
2022-10-09T12:10:14.180Z,16.72
2022-10-09T12:11:14.148Z,16.72
2022-10-09T12:12:14.142Z,16.11
2022-10-09T12:13:14.156Z,17.06
2022-10-09T12:14:17.111Z,17.06
2022-10-09T12:15:14.139Z,17.5
2022-10-09T12:16:14.194Z,18.17
2022-10-09T12:17:14.151Z,18.33
2022-10-09T12:18:14.153Z,18.83
2022-10-09T12:19:14.153Z,18
2022-10-09T12:20:14.205Z,18.17
2022-10-09T12:21:14.152Z,18.33
2022-10-09T12:22:14.181Z,18.5
2022-10-09T12:23:26.054Z,18.17
2022-10-09T12:24:14.162Z,17.67
2022-10-09T12:25:14.150Z,17.67
2022-10-09T12:26:14.177Z,17.83
2022-10-09T12:27:14.159Z,18.17
2022-10-09T12:28:14.203Z,18
2022-10-09T12:29:14.167Z,18.33
2022-10-09T12:30:14.335Z,18.67
2022-10-09T12:31:14.220Z,18.83
2022-10-09T12:32:14.177Z,18.94
2022-10-09T12:33:14.175Z,18.67
2022-10-09T12:34:14.166Z,18.17
2022-10-09T12:35:14.166Z,18.17
2022-10-09T12:36:14.174Z,18.17
2022-10-09T12:37:14.173Z,18.67
2022-10-09T12:38:14.196Z,18.83
2022-10-09T12:39:14.175Z,18.33
2022-10-09T12:40:14.178Z,19.11
2022-10-09T12:41:18.017Z,19.61
2022-10-09T12:42:14.178Z,20.11
2022-10-09T12:43:14.176Z,19.94
2022-10-09T12:44:14.175Z,19.83
2022-10-09T12:45:14.174Z,18.33
2022-10-09T12:46:14.211Z,18.17
2022-10-09T12:47:14.174Z,18.94
2022-10-09T12:48:14.176Z,19.11
2022-10-09T12:49:14.171Z,18.67
2022-10-09T12:50:14.182Z,18.94
2022-10-09T12:51:14.174Z,18.5
2022-10-09T12:52:14.187Z,18.33
2022-10-09T12:53:14.187Z,17.67
2022-10-09T12:54:14.204Z,17.67
2022-10-09T12:55:14.185Z,17.83
2022-10-09T12:56:14.184Z,17.67
2022-10-09T12:57:14.183Z,18
2022-10-09T12:58:14.188Z,18.5
2022-10-09T12:59:14.195Z,18.67
2022-10-09T13:00:14.180Z,19.11
2022-10-09T13:01:14.326Z,19.44
2022-10-09T13:02:14.395Z,19.61
2022-10-09T13:03:14.193Z,18.83
2022-10-09T13:04:14.191Z,19.61
2022-10-09T13:05:14.185Z,19.83
2022-10-09T13:06:14.192Z,20.11
2022-10-09T13:07:14.191Z,20.22